sensor_id;sensor_type;location;lat;lon;timestamp;temperature;humidity
26964;DHT22;14521;48.148;-1.656;2022-10-31T00:01:21;20.90;99.90
26964;DHT22;14521;48.148;-1.656;2022-10-31T00:04:44;20.90;99.90
26964;DHT22;14521;48.148;-1.656;2022-10-31T00:08:06;20.90;99.90
26964;DHT22;14521;48.148;-1.656;2022-10-31T00:11:28;20.90;99.90
26964;DHT22;14521;48.148;-1.656;2022-10-31T00:14:51;20.90;99.90
26964;DHT22;14521;48.148;-1.656;2022-10-31T00:18:13;20.90;99.90
26964;DHT22;14521;48.148;-1.656;2022-10-31T00:21:35;20.90;99.90
26964;DHT22;14521;48.148;-1.656;2022-10-31T00:24:57;20.90;99.90
26964;DHT22;14521;48.148;-1.656;2022-10-31T00:28:19;20.80;99.90
26964;DHT22;14521;48.148;-1.656;2022-10-31T00:31:42;20.80;99.90
26964;DHT22;14521;48.148;-1.656;2022-10-31T00:35:04;20.80;99.90
26964;DHT22;14521;48.148;-1.656;2022-10-31T00:38:27;20.80;99.90
26964;DHT22;14521;48.148;-1.656;2022-10-31T00:41:49;20.80;99.90
26964;DHT22;14521;48.148;-1.656;2022-10-31T00:45:11;20.80;99.90
26964;DHT22;14521;48.148;-1.656;2022-10-31T00:48:33;20.80;99.90
26964;DHT22;14521;48.148;-1.656;2022-10-31T00:51:56;20.80;99.90
26964;DHT22;14521;48.148;-1.656;2022-10-31T00:55:18;20.80;99.90
26964;DHT22;14521;48.148;-1.656;2022-10-31T00:58:40;20.80;99.90
26964;DHT22;14521;48.148;-1.656;2022-10-31T01:02:03;20.80;99.90
26964;DHT22;14521;48.148;-1.656;2022-10-31T01:05:26;20.80;99.90
26964;DHT22;14521;48.148;-1.656;2022-10-31T01:08:48;20.80;99.90
26964;DHT22;14521;48.148;-1.656;2022-10-31T01:12:10;20.80;99.90
26964;DHT22;14521;48.148;-1.656;2022-10-31T01:15:34;20.80;99.90
26964;DHT22;14521;48.148;-1.656;2022-10-31T01:18:56;20.70;99.90
26964;DHT22;14521;48.148;-1.656;2022-10-31T01:22:20;20.80;99.90
26964;DHT22;14521;48.148;-1.656;2022-10-31T01:25:42;20.80;99.90
26964;DHT22;14521;48.148;-1.656;2022-10-31T01:29:07;20.80;99.90
26964;DHT22;14521;48.148;-1.656;2022-10-31T01:32:29;20.80;99.90
26964;DHT22;14521;48.148;-1.656;2022-10-31T01:35:53;20.80;99.90
26964;DHT22;14521;48.148;-1.656;2022-10-31T01:39:15;20.80;99.90
26964;DHT22;14521;48.148;-1.656;2022-10-31T01:42:37;20.80;99.90
26964;DHT22;14521;48.148;-1.656;2022-10-31T01:46:00;20.80;99.90
26964;DHT22;14521;48.148;-1.656;2022-10-31T01:52:49;20.70;99.90
26964;DHT22;14521;48.148;-1.656;2022-10-31T01:56:13;20.70;99.90
26964;DHT22;14521;48.148;-1.656;2022-10-31T01:59:41;20.70;99.90
26964;DHT22;14521;48.148;-1.656;2022-10-31T02:03:07;20.70;99.90
26964;DHT22;14521;48.148;-1.656;2022-10-31T02:06:38;20.70;99.90
26964;DHT22;14521;48.148;-1.656;2022-10-31T02:10:02;20.70;99.90
26964;DHT22;14521;48.148;-1.656;2022-10-31T02:13:25;20.70;99.90
26964;DHT22;14521;48.148;-1.656;2022-10-31T02:16:47;20.70;99.90
26964;DHT22;14521;48.148;-1.656;2022-10-31T02:20:24;20.70;99.90
26964;DHT22;14521;48.148;-1.656;2022-10-31T02:35:03;20.70;99.90
26964;DHT22;14521;48.148;-1.656;2022-10-31T02:38:39;20.60;99.90
26964;DHT22;14521;48.148;-1.656;2022-10-31T02:42:14;20.70;99.90
26964;DHT22;14521;48.148;-1.656;2022-10-31T02:49:23;20.70;99.90
26964;DHT22;14521;48.148;-1.656;2022-10-31T02:52:52;20.70;99.90
26964;DHT22;14521;48.148;-1.656;2022-10-31T02:56:16;20.70;99.90
26964;DHT22;14521;48.148;-1.656;2022-10-31T02:59:47;20.60;99.90
26964;DHT22;14521;48.148;-1.656;2022-10-31T03:03:36;20.60;99.90
26964;DHT22;14521;48.148;-1.656;2022-10-31T03:07:32;20.60;99.90
26964;DHT22;14521;48.148;-1.656;2022-10-31T03:10:59;20.60;99.90
26964;DHT22;14521;48.148;-1.656;2022-10-31T03:14:31;20.60;99.90
26964;DHT22;14521;48.148;-1.656;2022-10-31T03:18:08;20.60;99.90
26964;DHT22;14521;48.148;-1.656;2022-10-31T03:21:36;20.60;99.90
26964;DHT22;14521;48.148;-1.656;2022-10-31T03:25:02;20.60;99.90
26964;DHT22;14521;48.148;-1.656;2022-10-31T03:28:30;20.60;99.90
26964;DHT22;14521;48.148;-1.656;2022-10-31T03:32:06;20.60;99.90
26964;DHT22;14521;48.148;-1.656;2022-10-31T03:35:30;20.60;99.90
26964;DHT22;14521;48.148;-1.656;2022-10-31T03:38:57;20.60;99.90
26964;DHT22;14521;48.148;-1.656;2022-10-31T03:42:25;20.60;99.90
26964;DHT22;14521;48.148;-1.656;2022-10-31T03:45:50;20.60;99.90
26964;DHT22;14521;48.148;-1.656;2022-10-31T03:49:13;20.60;99.90
26964;DHT22;14521;48.148;-1.656;2022-10-31T03:52:46;20.60;99.90
26964;DHT22;14521;48.148;-1.656;2022-10-31T03:56:18;20.60;99.90
26964;DHT22;14521;48.148;-1.656;2022-10-31T03:59:44;20.60;99.90
26964;DHT22;14521;48.148;-1.656;2022-10-31T04:03:42;20.60;99.90
26964;DHT22;14521;48.148;-1.656;2022-10-31T04:07:07;20.60;99.90
26964;DHT22;14521;48.148;-1.656;2022-10-31T04:10:31;20.60;99.90
26964;DHT22;14521;48.148;-1.656;2022-10-31T04:13:55;20.50;99.90
26964;DHT22;14521;48.148;-1.656;2022-10-31T04:17:21;20.50;99.90
26964;DHT22;14521;48.148;-1.656;2022-10-31T04:20:44;20.50;99.90
26964;DHT22;14521;48.148;-1.656;2022-10-31T04:24:11;20.50;99.90
26964;DHT22;14521;48.148;-1.656;2022-10-31T04:27:34;20.50;99.90
26964;DHT22;14521;48.148;-1.656;2022-10-31T04:30:57;20.50;99.90
26964;DHT22;14521;48.148;-1.656;2022-10-31T04:34:19;20.50;99.90
26964;DHT22;14521;48.148;-1.656;2022-10-31T04:37:41;20.50;99.90
26964;DHT22;14521;48.148;-1.656;2022-10-31T04:41:03;20.50;99.90
26964;DHT22;14521;48.148;-1.656;2022-10-31T04:44:42;20.50;99.90
26964;DHT22;14521;48.148;-1.656;2022-10-31T04:48:04;20.50;99.90
26964;DHT22;14521;48.148;-1.656;2022-10-31T04:51:29;20.50;99.90
26964;DHT22;14521;48.148;-1.656;2022-10-31T04:54:51;20.50;99.90
26964;DHT22;14521;48.148;-1.656;2022-10-31T04:58:33;20.50;99.90
26964;DHT22;14521;48.148;-1.656;2022-10-31T05:01:58;20.60;99.90
26964;DHT22;14521;48.148;-1.656;2022-10-31T05:05:37;20.50;99.90
26964;DHT22;14521;48.148;-1.656;2022-10-31T05:08:59;20.50;99.90
26964;DHT22;14521;48.148;-1.656;2022-10-31T05:12:23;20.50;99.90
26964;DHT22;14521;48.148;-1.656;2022-10-31T05:16:20;20.50;99.90
26964;DHT22;14521;48.148;-1.656;2022-10-31T05:20:08;20.50;99.90
26964;DHT22;14521;48.148;-1.656;2022-10-31T05:23:54;20.50;99.90
26964;DHT22;14521;48.148;-1.656;2022-10-31T05:27:18;20.50;99.90
26964;DHT22;14521;48.148;-1.656;2022-10-31T05:30:40;20.50;99.90
26964;DHT22;14521;48.148;-1.656;2022-10-31T05:34:07;20.50;99.90
26964;DHT22;14521;48.148;-1.656;2022-10-31T05:38:02;20.50;99.90
26964;DHT22;14521;48.148;-1.656;2022-10-31T05:41:25;20.50;99.90
26964;DHT22;14521;48.148;-1.656;2022-10-31T05:44:56;20.50;99.90
26964;DHT22;14521;48.148;-1.656;2022-10-31T05:48:28;20.50;99.90
26964;DHT22;14521;48.148;-1.656;2022-10-31T05:52:29;20.50;99.90
26964;DHT22;14521;48.148;-1.656;2022-10-31T05:56:01;20.50;99.90
26964;DHT22;14521;48.148;-1.656;2022-10-31T05:59:24;20.50;99.90
26964;DHT22;14521;48.148;-1.656;2022-10-31T06:02:47;20.50;99.90
26964;DHT22;14521;48.148;-1.656;2022-10-31T06:06:20;20.50;99.90
26964;DHT22;14521;48.148;-1.656;2022-10-31T06:09:43;20.50;99.90
26964;DHT22;14521;48.148;-1.656;2022-10-31T06:13:05;20.50;99.90
26964;DHT22;14521;48.148;-1.656;2022-10-31T06:16:33;20.50;99.90
26964;DHT22;14521;48.148;-1.656;2022-10-31T06:20:11;20.50;99.90
26964;DHT22;14521;48.148;-1.656;2022-10-31T06:23:45;20.50;99.90
26964;DHT22;14521;48.148;-1.656;2022-10-31T06:27:39;20.50;99.90
26964;DHT22;14521;48.148;-1.656;2022-10-31T06:31:07;20.50;99.90
26964;DHT22;14521;48.148;-1.656;2022-10-31T06:34:30;20.50;99.90
26964;DHT22;14521;48.148;-1.656;2022-10-31T06:37:56;20.60;99.90
26964;DHT22;14521;48.148;-1.656;2022-10-31T06:41:27;20.60;99.90
26964;DHT22;14521;48.148;-1.656;2022-10-31T06:44:51;20.60;99.90
26964;DHT22;14521;48.148;-1.656;2022-10-31T06:48:45;20.50;99.90
26964;DHT22;14521;48.148;-1.656;2022-10-31T06:52:13;20.60;99.90
26964;DHT22;14521;48.148;-1.656;2022-10-31T06:55:36;20.60;99.90
26964;DHT22;14521;48.148;-1.656;2022-10-31T06:58:58;20.70;99.90
26964;DHT22;14521;48.148;-1.656;2022-10-31T07:02:41;20.70;99.90
26964;DHT22;14521;48.148;-1.656;2022-10-31T07:06:03;20.70;99.90
26964;DHT22;14521;48.148;-1.656;2022-10-31T07:09:26;20.80;99.90
26964;DHT22;14521;48.148;-1.656;2022-10-31T07:12:55;20.80;99.90
26964;DHT22;14521;48.148;-1.656;2022-10-31T07:16:18;20.80;99.90
26964;DHT22;14521;48.148;-1.656;2022-10-31T07:19:40;20.80;99.90
26964;DHT22;14521;48.148;-1.656;2022-10-31T07:23:04;20.80;99.90
26964;DHT22;14521;48.148;-1.656;2022-10-31T07:26:27;20.80;99.90
26964;DHT22;14521;48.148;-1.656;2022-10-31T07:29:49;20.80;99.90
26964;DHT22;14521;48.148;-1.656;2022-10-31T07:33:12;20.70;99.90
26964;DHT22;14521;48.148;-1.656;2022-10-31T07:36:52;20.70;99.90
26964;DHT22;14521;48.148;-1.656;2022-10-31T07:40:16;20.70;99.90
26964;DHT22;14521;48.148;-1.656;2022-10-31T07:43:38;20.70;99.90
26964;DHT22;14521;48.148;-1.656;2022-10-31T07:47:12;20.70;99.90
26964;DHT22;14521;48.148;-1.656;2022-10-31T07:50:54;20.60;99.90
26964;DHT22;14521;48.148;-1.656;2022-10-31T07:54:35;20.60;99.90
26964;DHT22;14521;48.148;-1.656;2022-10-31T08:01:33;20.60;99.90
26964;DHT22;14521;48.148;-1.656;2022-10-31T08:05:18;20.60;99.90
26964;DHT22;14521;48.148;-1.656;2022-10-31T08:08:58;20.60;99.90
26964;DHT22;14521;48.148;-1.656;2022-10-31T08:12:21;20.60;99.90
26964;DHT22;14521;48.148;-1.656;2022-10-31T08:15:43;20.60;99.90
26964;DHT22;14521;48.148;-1.656;2022-10-31T08:19:06;20.60;99.90
26964;DHT22;14521;48.148;-1.656;2022-10-31T08:22:32;20.60;99.90
26964;DHT22;14521;48.148;-1.656;2022-10-31T08:25:57;20.60;99.90
26964;DHT22;14521;48.148;-1.656;2022-10-31T08:29:19;20.60;99.90
26964;DHT22;14521;48.148;-1.656;2022-10-31T08:32:41;20.60;99.90
26964;DHT22;14521;48.148;-1.656;2022-10-31T08:36:22;20.60;99.90
26964;DHT22;14521;48.148;-1.656;2022-10-31T08:39:45;20.60;99.90
26964;DHT22;14521;48.148;-1.656;2022-10-31T08:43:14;20.60;99.90
26964;DHT22;14521;48.148;-1.656;2022-10-31T08:46:37;20.60;99.90
26964;DHT22;14521;48.148;-1.656;2022-10-31T08:49:59;20.60;99.90
26964;DHT22;14521;48.148;-1.656;2022-10-31T08:53:21;20.60;99.90
26964;DHT22;14521;48.148;-1.656;2022-10-31T08:56:56;20.60;99.90
26964;DHT22;14521;48.148;-1.656;2022-10-31T09:00:33;20.60;99.90
26964;DHT22;14521;48.148;-1.656;2022-10-31T09:04:11;20.60;99.90
26964;DHT22;14521;48.148;-1.656;2022-10-31T09:07:33;20.70;99.90
26964;DHT22;14521;48.148;-1.656;2022-10-31T09:10:56;20.60;99.90
26964;DHT22;14521;48.148;-1.656;2022-10-31T09:14:39;20.50;99.90
26964;DHT22;14521;48.148;-1.656;2022-10-31T09:18:16;20.50;99.90
26964;DHT22;14521;48.148;-1.656;2022-10-31T09:21:44;20.50;99.90
26964;DHT22;14521;48.148;-1.656;2022-10-31T09:25:07;20.40;99.90
26964;DHT22;14521;48.148;-1.656;2022-10-31T09:28:32;20.30;99.90
26964;DHT22;14521;48.148;-1.656;2022-10-31T09:32:02;20.30;99.90
26964;DHT22;14521;48.148;-1.656;2022-10-31T09:35:29;20.30;99.90
26964;DHT22;14521;48.148;-1.656;2022-10-31T09:38:52;20.30;99.90
26964;DHT22;14521;48.148;-1.656;2022-10-31T09:42:36;20.30;99.90
26964;DHT22;14521;48.148;-1.656;2022-10-31T09:46:11;20.30;99.90
26964;DHT22;14521;48.148;-1.656;2022-10-31T09:53:27;20.30;99.90
26964;DHT22;14521;48.148;-1.656;2022-10-31T09:56:52;20.40;99.90
26964;DHT22;14521;48.148;-1.656;2022-10-31T10:00:18;20.40;99.90
26964;DHT22;14521;48.148;-1.656;2022-10-31T10:03:47;20.40;99.90
26964;DHT22;14521;48.148;-1.656;2022-10-31T10:15:41;20.30;99.90
26964;DHT22;14521;48.148;-1.656;2022-10-31T10:26:49;20.30;99.90
26964;DHT22;14521;48.148;-1.656;2022-10-31T10:30:34;20.40;99.90
26964;DHT22;14521;48.148;-1.656;2022-10-31T10:37:43;20.40;99.90
26964;DHT22;14521;48.148;-1.656;2022-10-31T10:41:20;20.50;99.90
26964;DHT22;14521;48.148;-1.656;2022-10-31T10:44:47;20.50;99.90
26964;DHT22;14521;48.148;-1.656;2022-10-31T10:48:57;20.60;99.90
26964;DHT22;14521;48.148;-1.656;2022-10-31T10:52:37;20.50;99.90
26964;DHT22;14521;48.148;-1.656;2022-10-31T10:56:18;20.50;99.90
26964;DHT22;14521;48.148;-1.656;2022-10-31T10:59:44;20.60;99.90
26964;DHT22;14521;48.148;-1.656;2022-10-31T11:03:07;20.60;99.90
26964;DHT22;14521;48.148;-1.656;2022-10-31T11:06:30;20.60;99.90
26964;DHT22;14521;48.148;-1.656;2022-10-31T11:10:03;20.60;99.90
26964;DHT22;14521;48.148;-1.656;2022-10-31T11:13:25;20.60;99.90
26964;DHT22;14521;48.148;-1.656;2022-10-31T11:16:54;20.60;99.90
26964;DHT22;14521;48.148;-1.656;2022-10-31T11:23:40;20.60;99.90
26964;DHT22;14521;48.148;-1.656;2022-10-31T11:27:19;20.60;99.90
26964;DHT22;14521;48.148;-1.656;2022-10-31T11:30:47;20.50;99.90
26964;DHT22;14521;48.148;-1.656;2022-10-31T11:37:48;20.50;99.90
26964;DHT22;14521;48.148;-1.656;2022-10-31T11:41:26;20.50;99.90
26964;DHT22;14521;48.148;-1.656;2022-10-31T11:44:50;20.50;99.90
26964;DHT22;14521;48.148;-1.656;2022-10-31T11:48:19;20.50;99.90
26964;DHT22;14521;48.148;-1.656;2022-10-31T11:51:43;20.50;99.90
26964;DHT22;14521;48.148;-1.656;2022-10-31T11:55:33;20.50;99.90
26964;DHT22;14521;48.148;-1.656;2022-10-31T11:58:58;20.40;99.90
26964;DHT22;14521;48.148;-1.656;2022-10-31T12:02:22;20.40;99.90
26964;DHT22;14521;48.148;-1.656;2022-10-31T12:05:45;20.40;99.90
26964;DHT22;14521;48.148;-1.656;2022-10-31T12:09:27;20.40;99.90
26964;DHT22;14521;48.148;-1.656;2022-10-31T12:20:28;20.40;99.90
26964;DHT22;14521;48.148;-1.656;2022-10-31T12:24:22;20.50;99.90
26964;DHT22;14521;48.148;-1.656;2022-10-31T12:42:27;20.50;99.90
26964;DHT22;14521;48.148;-1.656;2022-10-31T12:45:59;20.40;99.90
26964;DHT22;14521;48.148;-1.656;2022-10-31T12:53:03;20.40;99.90
26964;DHT22;14521;48.148;-1.656;2022-10-31T12:56:37;20.40;99.90
26964;DHT22;14521;48.148;-1.656;2022-10-31T13:00:13;20.40;99.90
26964;DHT22;14521;48.148;-1.656;2022-10-31T13:07:15;20.50;99.90
26964;DHT22;14521;48.148;-1.656;2022-10-31T13:10:48;20.50;99.90
26964;DHT22;14521;48.148;-1.656;2022-10-31T13:14:35;20.40;99.90
26964;DHT22;14521;48.148;-1.656;2022-10-31T13:18:12;20.40;99.90
26964;DHT22;14521;48.148;-1.656;2022-10-31T13:21:41;20.40;99.90
26964;DHT22;14521;48.148;-1.656;2022-10-31T13:28:57;20.50;99.90
26964;DHT22;14521;48.148;-1.656;2022-10-31T13:32:21;20.50;99.90
26964;DHT22;14521;48.148;-1.656;2022-10-31T13:46:58;20.50;99.90
26964;DHT22;14521;48.148;-1.656;2022-10-31T13:50:24;20.40;99.90
26964;DHT22;14521;48.148;-1.656;2022-10-31T13:53:57;20.40;99.90
26964;DHT22;14521;48.148;-1.656;2022-10-31T13:57:37;20.40;99.90
26964;DHT22;14521;48.148;-1.656;2022-10-31T14:01:19;20.40;99.90
26964;DHT22;14521;48.148;-1.656;2022-10-31T14:04:51;20.40;99.90
26964;DHT22;14521;48.148;-1.656;2022-10-31T14:08:20;20.40;99.90
26964;DHT22;14521;48.148;-1.656;2022-10-31T14:11:46;20.40;99.90
26964;DHT22;14521;48.148;-1.656;2022-10-31T14:15:17;20.40;99.90
26964;DHT22;14521;48.148;-1.656;2022-10-31T14:18:44;20.40;99.90
26964;DHT22;14521;48.148;-1.656;2022-10-31T14:22:20;20.40;99.90
26964;DHT22;14521;48.148;-1.656;2022-10-31T14:25:43;20.40;99.90
26964;DHT22;14521;48.148;-1.656;2022-10-31T14:32:39;20.40;99.90
26964;DHT22;14521;48.148;-1.656;2022-10-31T14:36:16;20.40;99.90
26964;DHT22;14521;48.148;-1.656;2022-10-31T14:43:25;20.50;99.90
26964;DHT22;14521;48.148;-1.656;2022-10-31T14:46:59;20.50;99.90
26964;DHT22;14521;48.148;-1.656;2022-10-31T14:54:02;20.50;99.90
26964;DHT22;14521;48.148;-1.656;2022-10-31T14:57:33;20.60;99.90
26964;DHT22;14521;48.148;-1.656;2022-10-31T15:00:57;20.50;99.90
26964;DHT22;14521;48.148;-1.656;2022-10-31T15:04:23;20.60;99.90
26964;DHT22;14521;48.148;-1.656;2022-10-31T15:08:05;20.60;99.90
26964;DHT22;14521;48.148;-1.656;2022-10-31T15:11:27;20.50;99.90
26964;DHT22;14521;48.148;-1.656;2022-10-31T15:14:49;20.60;99.90
26964;DHT22;14521;48.148;-1.656;2022-10-31T15:18:23;20.60;99.90
26964;DHT22;14521;48.148;-1.656;2022-10-31T15:21:46;20.60;99.90
26964;DHT22;14521;48.148;-1.656;2022-10-31T15:25:20;20.60;99.90
26964;DHT22;14521;48.148;-1.656;2022-10-31T15:28:43;20.60;99.90
26964;DHT22;14521;48.148;-1.656;2022-10-31T15:32:24;20.60;99.90
26964;DHT22;14521;48.148;-1.656;2022-10-31T15:36:02;20.60;99.90
26964;DHT22;14521;48.148;-1.656;2022-10-31T15:39:26;20.60;99.90
26964;DHT22;14521;48.148;-1.656;2022-10-31T15:42:58;20.60;99.90
26964;DHT22;14521;48.148;-1.656;2022-10-31T15:46:22;20.60;99.90
26964;DHT22;14521;48.148;-1.656;2022-10-31T15:49:56;20.60;99.90
26964;DHT22;14521;48.148;-1.656;2022-10-31T15:53:28;20.60;99.90
26964;DHT22;14521;48.148;-1.656;2022-10-31T15:56:52;20.60;99.90
26964;DHT22;14521;48.148;-1.656;2022-10-31T16:00:41;20.60;99.90
26964;DHT22;14521;48.148;-1.656;2022-10-31T16:04:24;20.50;99.90
26964;DHT22;14521;48.148;-1.656;2022-10-31T16:07:51;20.50;99.90
26964;DHT22;14521;48.148;-1.656;2022-10-31T16:11:15;20.50;99.90
26964;DHT22;14521;48.148;-1.656;2022-10-31T16:14:39;20.50;99.90
26964;DHT22;14521;48.148;-1.656;2022-10-31T16:18:03;20.50;99.90
26964;DHT22;14521;48.148;-1.656;2022-10-31T16:21:33;20.50;99.90
26964;DHT22;14521;48.148;-1.656;2022-10-31T16:25:20;20.50;99.90
26964;DHT22;14521;48.148;-1.656;2022-10-31T16:28:52;20.50;99.90
26964;DHT22;14521;48.148;-1.656;2022-10-31T16:32:55;20.50;99.90
26964;DHT22;14521;48.148;-1.656;2022-10-31T16:39:56;20.50;99.90
26964;DHT22;14521;48.148;-1.656;2022-10-31T16:43:20;20.60;99.90
26964;DHT22;14521;48.148;-1.656;2022-10-31T16:46:44;20.50;99.90
26964;DHT22;14521;48.148;-1.656;2022-10-31T16:50:21;20.50;99.90
26964;DHT22;14521;48.148;-1.656;2022-10-31T16:53:44;20.50;99.90
26964;DHT22;14521;48.148;-1.656;2022-10-31T16:57:15;20.50;99.90
26964;DHT22;14521;48.148;-1.656;2022-10-31T17:00:38;20.50;99.90
26964;DHT22;14521;48.148;-1.656;2022-10-31T17:04:01;20.40;99.90
26964;DHT22;14521;48.148;-1.656;2022-10-31T17:07:23;20.50;99.90
26964;DHT22;14521;48.148;-1.656;2022-10-31T17:10:46;20.40;99.90
26964;DHT22;14521;48.148;-1.656;2022-10-31T17:14:11;20.40;99.90
26964;DHT22;14521;48.148;-1.656;2022-10-31T17:17:34;20.40;99.90
26964;DHT22;14521;48.148;-1.656;2022-10-31T17:20:57;20.50;99.90
26964;DHT22;14521;48.148;-1.656;2022-10-31T17:24:20;20.50;99.90
26964;DHT22;14521;48.148;-1.656;2022-10-31T17:27:43;20.50;99.90
26964;DHT22;14521;48.148;-1.656;2022-10-31T17:31:28;20.50;99.90
26964;DHT22;14521;48.148;-1.656;2022-10-31T17:34:51;20.50;99.90
26964;DHT22;14521;48.148;-1.656;2022-10-31T17:38:13;20.50;99.90
26964;DHT22;14521;48.148;-1.656;2022-10-31T17:41:35;20.50;99.90
26964;DHT22;14521;48.148;-1.656;2022-10-31T17:44:57;20.50;99.90
26964;DHT22;14521;48.148;-1.656;2022-10-31T17:48:20;20.50;99.90
26964;DHT22;14521;48.148;-1.656;2022-10-31T17:51:42;20.50;99.90
26964;DHT22;14521;48.148;-1.656;2022-10-31T17:55:04;20.50;99.90
26964;DHT22;14521;48.148;-1.656;2022-10-31T17:58:27;20.50;99.90
26964;DHT22;14521;48.148;-1.656;2022-10-31T18:01:49;20.50;99.90
26964;DHT22;14521;48.148;-1.656;2022-10-31T18:05:12;20.50;99.90
26964;DHT22;14521;48.148;-1.656;2022-10-31T18:08:37;20.60;99.90
26964;DHT22;14521;48.148;-1.656;2022-10-31T18:11:59;20.50;99.90
26964;DHT22;14521;48.148;-1.656;2022-10-31T18:15:22;20.50;99.90
26964;DHT22;14521;48.148;-1.656;2022-10-31T18:18:48;20.60;99.90
26964;DHT22;14521;48.148;-1.656;2022-10-31T18:22:11;20.60;99.90
26964;DHT22;14521;48.148;-1.656;2022-10-31T18:25:33;20.60;99.90
26964;DHT22;14521;48.148;-1.656;2022-10-31T18:28:56;20.60;99.90
26964;DHT22;14521;48.148;-1.656;2022-10-31T18:32:18;20.70;99.90
26964;DHT22;14521;48.148;-1.656;2022-10-31T18:35:41;20.80;99.90
26964;DHT22;14521;48.148;-1.656;2022-10-31T18:39:03;20.90;99.90
26964;DHT22;14521;48.148;-1.656;2022-10-31T18:42:25;21.00;99.90
26964;DHT22;14521;48.148;-1.656;2022-10-31T18:45:47;21.10;99.90
26964;DHT22;14521;48.148;-1.656;2022-10-31T18:49:16;21.00;99.90
26964;DHT22;14521;48.148;-1.656;2022-10-31T18:52:43;21.00;99.90
26964;DHT22;14521;48.148;-1.656;2022-10-31T18:56:07;21.00;99.90
26964;DHT22;14521;48.148;-1.656;2022-10-31T18:59:30;21.00;99.90
26964;DHT22;14521;48.148;-1.656;2022-10-31T19:02:52;21.00;99.90
26964;DHT22;14521;48.148;-1.656;2022-10-31T19:06:17;21.00;99.90
26964;DHT22;14521;48.148;-1.656;2022-10-31T19:09:39;21.00;99.90
26964;DHT22;14521;48.148;-1.656;2022-10-31T19:13:02;21.00;99.90
26964;DHT22;14521;48.148;-1.656;2022-10-31T19:16:25;21.00;99.90
26964;DHT22;14521;48.148;-1.656;2022-10-31T19:19:48;21.00;99.90
26964;DHT22;14521;48.148;-1.656;2022-10-31T19:23:10;21.00;99.90
26964;DHT22;14521;48.148;-1.656;2022-10-31T19:26:33;21.00;99.90
26964;DHT22;14521;48.148;-1.656;2022-10-31T19:29:55;21.00;99.90
26964;DHT22;14521;48.148;-1.656;2022-10-31T19:33:18;20.90;99.90
26964;DHT22;14521;48.148;-1.656;2022-10-31T19:36:40;20.90;99.90
26964;DHT22;14521;48.148;-1.656;2022-10-31T19:40:05;21.00;99.90
26964;DHT22;14521;48.148;-1.656;2022-10-31T19:43:28;21.00;99.90
26964;DHT22;14521;48.148;-1.656;2022-10-31T19:46:50;21.00;99.90
26964;DHT22;14521;48.148;-1.656;2022-10-31T19:50:15;21.00;99.90
26964;DHT22;14521;48.148;-1.656;2022-10-31T19:53:38;21.00;99.90
26964;DHT22;14521;48.148;-1.656;2022-10-31T19:57:00;20.90;99.90
26964;DHT22;14521;48.148;-1.656;2022-10-31T20:00:22;20.90;99.90
26964;DHT22;14521;48.148;-1.656;2022-10-31T20:03:45;21.00;99.90
26964;DHT22;14521;48.148;-1.656;2022-10-31T20:07:08;20.90;99.90
26964;DHT22;14521;48.148;-1.656;2022-10-31T20:10:30;20.80;99.90
26964;DHT22;14521;48.148;-1.656;2022-10-31T20:13:56;20.70;99.90
26964;DHT22;14521;48.148;-1.656;2022-10-31T20:17:19;20.70;99.90
26964;DHT22;14521;48.148;-1.656;2022-10-31T20:20:41;20.70;99.90
26964;DHT22;14521;48.148;-1.656;2022-10-31T20:24:06;20.70;99.90
26964;DHT22;14521;48.148;-1.656;2022-10-31T20:27:28;20.70;99.90
26964;DHT22;14521;48.148;-1.656;2022-10-31T20:30:51;20.70;99.90
26964;DHT22;14521;48.148;-1.656;2022-10-31T20:34:14;20.70;99.90
26964;DHT22;14521;48.148;-1.656;2022-10-31T20:37:36;20.80;99.90
26964;DHT22;14521;48.148;-1.656;2022-10-31T20:41:00;20.80;99.90
26964;DHT22;14521;48.148;-1.656;2022-10-31T20:44:07;20.90;99.90
26964;DHT22;14521;48.148;-1.656;2022-10-31T20:47:30;21.00;99.90
26964;DHT22;14521;48.148;-1.656;2022-10-31T20:50:57;21.00;99.90
26964;DHT22;14521;48.148;-1.656;2022-10-31T20:54:19;20.90;99.90
26964;DHT22;14521;48.148;-1.656;2022-10-31T20:57:41;20.70;99.90
26964;DHT22;14521;48.148;-1.656;2022-10-31T21:01:07;20.60;99.90
26964;DHT22;14521;48.148;-1.656;2022-10-31T21:04:32;20.60;99.90
26964;DHT22;14521;48.148;-1.656;2022-10-31T21:07:54;20.60;99.90
26964;DHT22;14521;48.148;-1.656;2022-10-31T21:11:18;20.60;99.90
26964;DHT22;14521;48.148;-1.656;2022-10-31T21:14:42;20.70;99.90
26964;DHT22;14521;48.148;-1.656;2022-10-31T21:18:04;20.70;99.90
26964;DHT22;14521;48.148;-1.656;2022-10-31T21:21:29;20.70;99.90
26964;DHT22;14521;48.148;-1.656;2022-10-31T21:24:53;20.70;99.90
26964;DHT22;14521;48.148;-1.656;2022-10-31T21:28:16;20.70;99.90
26964;DHT22;14521;48.148;-1.656;2022-10-31T21:31:39;20.70;99.90
26964;DHT22;14521;48.148;-1.656;2022-10-31T21:35:01;20.70;99.90
26964;DHT22;14521;48.148;-1.656;2022-10-31T21:38:24;20.80;99.90
26964;DHT22;14521;48.148;-1.656;2022-10-31T21:41:46;20.70;99.90
26964;DHT22;14521;48.148;-1.656;2022-10-31T21:45:08;20.80;99.90
26964;DHT22;14521;48.148;-1.656;2022-10-31T21:48:30;20.70;99.90
26964;DHT22;14521;48.148;-1.656;2022-10-31T21:51:54;20.70;99.90
26964;DHT22;14521;48.148;-1.656;2022-10-31T21:55:16;20.80;99.90
26964;DHT22;14521;48.148;-1.656;2022-10-31T21:58:38;20.70;99.90
26964;DHT22;14521;48.148;-1.656;2022-10-31T22:02:00;20.70;99.90
26964;DHT22;14521;48.148;-1.656;2022-10-31T22:05:23;20.80;99.90
26964;DHT22;14521;48.148;-1.656;2022-10-31T22:08:45;20.70;99.90
26964;DHT22;14521;48.148;-1.656;2022-10-31T22:12:07;20.70;99.90
26964;DHT22;14521;48.148;-1.656;2022-10-31T22:15:30;20.70;99.90
26964;DHT22;14521;48.148;-1.656;2022-10-31T22:18:54;20.70;99.90
26964;DHT22;14521;48.148;-1.656;2022-10-31T22:22:17;20.70;99.90
26964;DHT22;14521;48.148;-1.656;2022-10-31T22:25:39;20.70;99.90
26964;DHT22;14521;48.148;-1.656;2022-10-31T22:29:04;20.60;99.90
26964;DHT22;14521;48.148;-1.656;2022-10-31T22:32:27;20.70;99.90
26964;DHT22;14521;48.148;-1.656;2022-10-31T22:35:49;20.60;99.90
26964;DHT22;14521;48.148;-1.656;2022-10-31T22:39:12;20.70;99.90
26964;DHT22;14521;48.148;-1.656;2022-10-31T22:42:34;20.60;99.90
26964;DHT22;14521;48.148;-1.656;2022-10-31T22:45:58;20.70;99.90
26964;DHT22;14521;48.148;-1.656;2022-10-31T22:49:21;20.70;99.90
26964;DHT22;14521;48.148;-1.656;2022-10-31T22:52:43;20.70;99.90
26964;DHT22;14521;48.148;-1.656;2022-10-31T22:56:07;20.70;99.90
26964;DHT22;14521;48.148;-1.656;2022-10-31T22:59:30;20.70;99.90
26964;DHT22;14521;48.148;-1.656;2022-10-31T23:02:52;20.70;99.90
26964;DHT22;14521;48.148;-1.656;2022-10-31T23:06:19;20.70;99.90
26964;DHT22;14521;48.148;-1.656;2022-10-31T23:09:42;20.60;99.90
26964;DHT22;14521;48.148;-1.656;2022-10-31T23:13:04;20.60;99.90
26964;DHT22;14521;48.148;-1.656;2022-10-31T23:16:46;20.60;99.90
26964;DHT22;14521;48.148;-1.656;2022-10-31T23:20:08;20.50;99.90